createdAt,value
2023-01-23T00:01:17.334Z,101642.53
2023-01-23T00:03:44.098Z,101640.78
2023-01-23T00:06:13.563Z,101650.38
2023-01-23T00:08:41.189Z,101655.59
2023-01-23T00:11:12.315Z,101655.59
2023-01-23T00:13:39.309Z,101659.06
2023-01-23T00:16:07.998Z,101654.72
2023-01-23T00:18:34.626Z,101652.94
2023-01-23T00:21:05.803Z,101649.50
2023-01-23T00:23:33.644Z,101643.41
2023-01-23T00:26:05.239Z,101647.75
2023-01-23T00:28:31.989Z,101648.63
2023-01-23T00:31:15.544Z,101646.88
2023-01-23T00:33:43.772Z,101646.00
2023-01-23T00:36:11.954Z,101636.44
2023-01-23T00:38:38.558Z,101641.66
2023-01-23T00:41:05.246Z,101645.16
2023-01-23T00:43:31.727Z,101640.78
2023-01-23T00:45:58.762Z,101642.50
2023-01-23T00:48:25.296Z,101648.63
2023-01-23T00:50:52.383Z,101651.22
2023-01-23T00:53:19.343Z,101649.50
2023-01-23T00:55:46.099Z,101661.66
2023-01-23T00:58:12.824Z,101652.94
2023-01-23T01:00:39.819Z,101658.19
2023-01-23T01:03:07.355Z,101656.44
2023-01-23T01:05:34.225Z,101660.78
2023-01-23T01:08:01.110Z,101659.91
2023-01-23T01:10:31.704Z,101659.03
2023-01-23T01:13:00.648Z,101665.13
2023-01-23T01:15:27.872Z,101660.75
2023-01-23T01:17:54.428Z,101664.25
2023-01-23T01:20:26.105Z,101657.31
2023-01-23T01:22:57.345Z,101662.47
2023-01-23T01:25:24.302Z,101660.75
2023-01-23T01:27:50.907Z,101668.59
2023-01-23T01:30:18.942Z,101665.97
2023-01-23T01:32:45.660Z,101675.56
2023-01-23T01:35:12.473Z,101671.22
2023-01-23T01:37:40.739Z,101685.13
2023-01-23T01:40:12.412Z,101695.56
2023-01-23T01:42:41.736Z,101694.69
2023-01-23T01:45:46.928Z,101696.44
2023-01-23T01:48:14.988Z,101693.81
2023-01-23T01:50:41.634Z,101700.78
2023-01-23T01:53:08.251Z,101700.78
2023-01-23T01:55:34.750Z,101703.38
2023-01-23T01:58:01.895Z,101699.94
2023-01-23T02:00:28.521Z,101697.28
2023-01-23T02:03:01.496Z,101698.16
2023-01-23T02:05:29.765Z,101694.69
2023-01-23T02:08:17.705Z,101691.19
2023-01-23T02:10:44.614Z,101693.81
2023-01-23T02:13:35.910Z,101690.34
2023-01-23T02:16:09.693Z,101689.47
2023-01-23T02:18:44.726Z,101689.47
2023-01-23T02:21:14.052Z,101692.94
2023-01-23T02:24:04.670Z,101692.06
2023-01-23T02:26:37.702Z,101694.69
2023-01-23T02:29:05.910Z,101685.13
2023-01-23T02:31:33.017Z,101686.00
2023-01-23T02:34:00.348Z,101681.66
2023-01-23T02:36:36.113Z,101690.34
2023-01-23T02:39:07.095Z,101685.13
2023-01-23T02:41:45.908Z,101687.75
2023-01-23T02:44:14.717Z,101675.56
2023-01-23T02:46:41.245Z,101682.53
2023-01-23T02:49:07.815Z,101672.09
2023-01-23T02:51:34.936Z,101681.66
2023-01-23T02:54:01.961Z,101673.81
2023-01-23T02:56:29.017Z,101676.44
2023-01-23T02:59:14.078Z,101678.16
2023-01-23T03:01:40.647Z,101680.78
2023-01-23T03:04:07.148Z,101684.25
2023-01-23T03:06:38.808Z,101684.25
2023-01-23T03:09:08.538Z,101692.09
2023-01-23T03:11:37.311Z,101685.13
2023-01-23T03:14:04.220Z,101692.09
2023-01-23T03:16:30.892Z,101692.09
2023-01-23T03:18:58.916Z,101699.91
2023-01-23T03:21:25.481Z,101693.81
2023-01-23T03:23:51.962Z,101697.31
2023-01-23T03:26:18.610Z,101702.53
2023-01-23T03:29:03.406Z,101697.31
2023-01-23T03:31:30.613Z,101697.31
2023-01-23T03:33:57.220Z,101698.16
2023-01-23T03:36:23.855Z,101700.78
2023-01-23T03:39:08.885Z,101699.91
2023-01-23T03:41:36.568Z,101702.50
2023-01-23T03:44:03.236Z,101695.56
2023-01-23T03:46:29.712Z,101701.66
2023-01-23T03:48:56.297Z,101703.38
2023-01-23T03:51:22.856Z,101701.66
2023-01-23T03:53:49.529Z,101713.81
2023-01-23T03:56:16.033Z,101708.59
2023-01-23T03:58:42.651Z,101704.25
2023-01-23T04:01:09.717Z,101706.88
2023-01-23T04:03:36.684Z,101708.59
2023-01-23T04:06:03.349Z,101706.88
2023-01-23T04:08:29.869Z,101704.25
2023-01-23T04:11:08.034Z,101716.47
2023-01-23T04:16:09.120Z,101710.38
2023-01-23T04:18:35.633Z,101719.03
2023-01-23T04:21:02.111Z,101718.19
2023-01-23T04:23:28.451Z,101717.31
2023-01-23T04:25:54.846Z,101717.31
2023-01-23T04:28:21.241Z,101715.59
2023-01-23T04:30:49.363Z,101717.31
2023-01-23T04:33:15.807Z,101721.66
2023-01-23T04:35:56.193Z,101720.78
2023-01-23T04:38:24.327Z,101714.69
2023-01-23T04:40:51.272Z,101726.88
2023-01-23T04:43:17.819Z,101723.41
2023-01-23T04:45:45.232Z,101720.78
2023-01-23T04:48:13.052Z,101725.13
2023-01-23T04:50:39.701Z,101720.78
2023-01-23T04:53:06.523Z,101727.75
2023-01-23T04:55:33.873Z,101719.06
2023-01-23T04:58:01.220Z,101720.78
2023-01-23T05:00:29.324Z,101719.06
2023-01-23T05:02:56.478Z,101725.16
2023-01-23T05:05:23.683Z,101730.38
2023-01-23T05:07:51.304Z,101729.50
2023-01-23T05:10:18.634Z,101730.38
2023-01-23T05:12:45.255Z,101734.72
2023-01-23T05:15:12.118Z,101736.44
2023-01-23T05:17:38.604Z,101737.31
2023-01-23T05:20:06.131Z,101736.44
2023-01-23T05:22:33.544Z,101745.16
2023-01-23T05:25:00.319Z,101749.50
2023-01-23T05:27:26.681Z,101742.53
2023-01-23T05:29:53.004Z,101763.41
2023-01-23T05:32:19.462Z,101760.81
2023-01-23T05:34:45.904Z,101761.69
2023-01-23T05:37:12.234Z,101766.91
2023-01-23T05:39:38.535Z,101765.13
2023-01-23T05:42:05.087Z,101768.63
2023-01-23T05:44:31.596Z,101764.28
2023-01-23T05:46:57.925Z,101766.88
2023-01-23T05:49:24.343Z,101772.09
2023-01-23T05:51:50.655Z,101769.50
2023-01-23T05:54:17.114Z,101771.22
2023-01-23T05:56:43.418Z,101774.72
2023-01-23T05:59:10.064Z,101776.44
2023-01-23T06:01:36.385Z,101780.78
2023-01-23T06:04:02.733Z,101781.66
2023-01-23T06:06:29.107Z,101779.06
2023-01-23T06:08:55.423Z,101786.00
2023-01-23T06:11:21.752Z,101795.56
2023-01-23T06:14:01.039Z,101789.50
2023-01-23T06:16:27.602Z,101795.56
2023-01-23T06:18:54.266Z,101790.34
2023-01-23T06:21:20.722Z,101796.47
2023-01-23T06:23:47.255Z,101790.34
2023-01-23T06:26:13.698Z,101796.47
2023-01-23T06:28:40.875Z,101791.25
2023-01-23T06:31:09.353Z,101795.59
2023-01-23T06:33:38.792Z,101804.28
2023-01-23T06:36:06.431Z,101799.06
2023-01-23T06:38:32.851Z,101813.84
2023-01-23T06:40:59.581Z,101805.16
2023-01-23T06:43:26.427Z,101810.38
2023-01-23T06:45:52.832Z,101813.84
2023-01-23T06:48:19.248Z,101813.88
2023-01-23T06:50:45.590Z,101808.66
2023-01-23T06:53:18.282Z,101822.56
2023-01-23T06:55:45.040Z,101820.81
2023-01-23T06:58:11.468Z,101821.69
2023-01-23T07:00:37.874Z,101820.81
2023-01-23T07:03:04.309Z,101825.16
2023-01-23T07:05:31.482Z,101831.25
2023-01-23T07:07:57.962Z,101829.53
2023-01-23T07:10:24.460Z,101834.75
2023-01-23T07:12:50.802Z,101832.13
2023-01-23T07:15:17.261Z,101831.25
2023-01-23T07:17:43.717Z,101833.84
2023-01-23T07:20:10.877Z,101826.91
2023-01-23T07:22:37.226Z,101828.63
2023-01-23T07:25:03.882Z,101833.84
2023-01-23T07:27:30.229Z,101836.50
2023-01-23T07:29:56.558Z,101830.38
2023-01-23T07:32:22.981Z,101841.69
2023-01-23T07:34:49.459Z,101837.34
2023-01-23T07:37:15.767Z,101844.31
2023-01-23T07:39:42.140Z,101847.78
2023-01-23T07:42:08.543Z,101850.41
2023-01-23T07:44:34.929Z,101854.75
2023-01-23T07:47:01.308Z,101854.75
2023-01-23T07:49:27.714Z,101857.34
2023-01-23T07:51:54.057Z,101861.69
2023-01-23T07:54:20.399Z,101862.56
2023-01-23T07:56:49.604Z,101858.22
2023-01-23T07:59:15.950Z,101864.31
2023-01-23T08:01:42.431Z,101866.03
2023-01-23T08:04:08.817Z,101864.31
2023-01-23T08:06:36.608Z,101859.09
2023-01-23T08:09:02.981Z,101865.19
2023-01-23T08:11:29.528Z,101874.75
2023-01-23T08:13:55.929Z,101873.00
2023-01-23T08:16:22.404Z,101868.66
2023-01-23T08:18:48.756Z,101872.13
2023-01-23T08:21:15.227Z,101875.63
2023-01-23T08:23:41.795Z,101885.19
2023-01-23T08:26:11.227Z,101881.69
2023-01-23T08:28:37.601Z,101877.34
2023-01-23T08:31:07.163Z,101885.19
2023-01-23T08:33:34.365Z,101889.53
2023-01-23T08:36:01.383Z,101892.13
2023-01-23T08:38:28.181Z,101893.03
2023-01-23T08:40:58.227Z,101889.53
2023-01-23T08:43:24.646Z,101888.66
2023-01-23T08:45:53.552Z,101890.41
2023-01-23T08:48:21.242Z,101883.44
2023-01-23T08:50:48.126Z,101890.44
2023-01-23T08:53:14.495Z,101900.88
2023-01-23T08:55:41.167Z,101899.09
2023-01-23T08:58:09.391Z,101905.19
2023-01-23T09:00:36.283Z,101905.19
2023-01-23T09:03:03.616Z,101899.09
2023-01-23T09:05:30.877Z,101893.03
2023-01-23T09:08:01.081Z,101899.13
2023-01-23T09:10:27.623Z,101901.72
2023-01-23T09:12:54.996Z,101906.06
2023-01-23T09:15:22.431Z,101903.47
2023-01-23T09:17:49.553Z,101908.69
2023-01-23T09:20:16.426Z,101909.56
2023-01-23T09:22:42.770Z,101914.78
2023-01-23T09:25:09.689Z,101910.41
2023-01-23T09:27:36.096Z,101913.03
2023-01-23T09:30:02.489Z,101912.16
2023-01-23T09:32:28.798Z,101903.50
2023-01-23T09:34:55.162Z,101908.72
2023-01-23T09:37:21.906Z,101916.50
2023-01-23T09:39:48.226Z,101909.56
2023-01-23T09:42:18.807Z,101922.63
2023-01-23T09:44:51.081Z,101909.56
2023-01-23T09:47:31.465Z,101924.34
2023-01-23T09:50:21.738Z,101926.13
2023-01-23T09:52:54.818Z,101921.75
2023-01-23T09:55:43.972Z,101926.97
2023-01-23T09:58:20.595Z,101927.81
2023-01-23T10:00:47.512Z,101932.19
2023-01-23T10:03:16.413Z,101927.84
2023-01-23T10:06:19.611Z,101922.59
2023-01-23T10:09:23.497Z,101926.09
2023-01-23T10:12:23.656Z,101932.16
2023-01-23T10:17:36.059Z,101925.22
2023-01-23T10:20:17.787Z,101924.34
2023-01-23T10:23:02.252Z,101920.88
2023-01-23T10:25:35.771Z,101922.59
2023-01-23T10:28:18.540Z,101921.75
2023-01-23T10:30:49.764Z,101911.31
2023-01-23T10:33:18.217Z,101909.56
2023-01-23T10:35:53.199Z,101911.31
2023-01-23T10:38:46.144Z,101912.19
2023-01-23T10:41:15.878Z,101905.22
2023-01-23T10:43:43.873Z,101908.72
2023-01-23T10:46:19.446Z,101907.81
2023-01-23T10:48:46.034Z,101906.94
2023-01-23T10:51:28.650Z,101910.44
2023-01-23T10:54:31.851Z,101907.81
2023-01-23T10:57:07.971Z,101906.09
2023-01-23T10:59:48.808Z,101912.19
2023-01-23T11:02:15.981Z,101915.66
2023-01-23T11:04:44.475Z,101920.00
2023-01-23T11:07:22.207Z,101914.81
2023-01-23T11:09:54.503Z,101906.97
2023-01-23T11:12:26.908Z,101915.66
2023-01-23T11:15:12.069Z,101914.78
2023-01-23T11:17:39.346Z,101922.63
2023-01-23T11:20:27.783Z,101923.50
2023-01-23T11:23:10.914Z,101918.28
2023-01-23T11:25:41.198Z,101925.25
2023-01-23T11:28:29.615Z,101926.13
2023-01-23T11:31:14.575Z,101927.00
2023-01-23T11:33:54.753Z,101924.38
2023-01-23T11:36:44.570Z,101917.41
2023-01-23T11:39:45.300Z,101929.59
2023-01-23T11:42:14.768Z,101927.84
2023-01-23T11:44:46.563Z,101920.91
2023-01-23T11:47:45.260Z,101934.81
2023-01-23T11:50:17.389Z,101934.81
2023-01-23T11:52:58.729Z,101934.81
2023-01-23T11:55:49.428Z,101933.06
2023-01-23T11:58:49.098Z,101931.31
2023-01-23T12:01:51.920Z,101934.81
2023-01-23T12:04:46.653Z,101933.06
2023-01-23T12:07:21.203Z,101934.78
2023-01-23T12:09:52.365Z,101938.28
2023-01-23T12:12:18.821Z,101941.75
2023-01-23T12:15:03.723Z,101938.28
2023-01-23T12:18:04.037Z,101943.47
2023-01-23T12:20:42.613Z,101936.53
2023-01-23T12:23:30.313Z,101937.41
2023-01-23T12:26:22.639Z,101940.03
2023-01-23T12:29:22.265Z,101940.88
2023-01-23T12:32:01.175Z,101937.38
2023-01-23T12:34:57.779Z,101941.75
2023-01-23T12:37:50.433Z,101938.25
2023-01-23T12:40:31.273Z,101926.03
2023-01-23T12:43:08.676Z,101927.81
2023-01-23T12:45:41.316Z,101929.53
2023-01-23T12:48:17.468Z,101925.16
2023-01-23T12:50:59.114Z,101912.97
2023-01-23T12:53:26.381Z,101919.06
2023-01-23T12:55:58.781Z,101926.03
2023-01-23T12:58:27.672Z,101926.91
2023-01-23T13:01:03.793Z,101932.13
2023-01-23T13:03:51.739Z,101919.09
2023-01-23T13:06:42.073Z,101921.66
2023-01-23T13:09:22.163Z,101921.66
2023-01-23T13:12:21.785Z,101912.09
2023-01-23T13:15:13.016Z,101912.06
2023-01-23T13:17:47.572Z,101919.06
2023-01-23T13:20:44.892Z,101912.94
2023-01-23T13:23:25.526Z,101915.56
2023-01-23T13:26:10.881Z,101917.31
2023-01-23T13:28:48.632Z,101918.16
2023-01-23T13:31:40.268Z,101926.03
2023-01-23T13:34:16.233Z,101928.66
2023-01-23T13:36:51.065Z,101931.28
2023-01-23T13:39:17.521Z,101933.00
2023-01-23T13:41:51.729Z,101934.75
2023-01-23T13:44:29.685Z,101939.13
2023-01-23T14:22:15.405Z,101939.97
2023-01-23T14:24:47.232Z,101941.69
2023-01-23T14:27:51.407Z,101942.59
2023-01-23T14:30:24.712Z,101953.03
2023-01-23T14:32:51.316Z,101944.31
2023-01-23T14:35:27.164Z,101940.84
2023-01-23T14:37:57.775Z,101946.97
2023-01-23T14:40:28.152Z,101936.50
2023-01-23T14:43:00.869Z,101937.38
2023-01-23T14:45:33.145Z,101943.47
2023-01-23T14:48:05.965Z,101948.69
2023-01-23T14:50:33.761Z,101950.47
2023-01-23T14:53:02.705Z,101957.41
2023-01-23T14:55:30.503Z,101958.28
2023-01-23T14:57:59.626Z,101952.19
2023-01-23T15:00:27.976Z,101958.28
2023-01-23T15:02:56.213Z,101957.41
2023-01-23T15:05:27.955Z,101968.75
2023-01-23T15:07:58.617Z,101960.06
2023-01-23T15:10:47.053Z,101958.31
2023-01-23T15:13:22.293Z,101960.03
2023-01-23T15:16:14.807Z,101957.44
2023-01-23T15:19:06.683Z,101954.81
2023-01-23T15:21:41.346Z,101942.63
2023-01-23T15:24:14.057Z,101940.03
2023-01-23T15:26:45.503Z,101932.16
2023-01-23T15:29:11.947Z,101930.44
2023-01-23T15:31:39.114Z,101929.59
2023-01-23T15:34:14.736Z,101926.09
2023-01-23T15:37:05.343Z,101926.09
2023-01-23T15:39:51.707Z,101924.38
2023-01-23T15:42:18.308Z,101920.88
2023-01-23T15:44:44.933Z,101914.78
2023-01-23T15:47:11.518Z,101907.81
2023-01-23T15:49:39.966Z,101912.19
2023-01-23T15:52:22.776Z,101920.00
2023-01-23T15:54:54.712Z,101917.41
2023-01-23T15:57:21.243Z,101920.91
2023-01-23T15:59:47.893Z,101928.72
2023-01-23T16:02:29.696Z,101921.75
2023-01-23T16:04:57.026Z,101913.03
2023-01-23T16:07:30.285Z,101920.03
2023-01-23T16:09:57.778Z,101917.41
2023-01-23T16:12:28.172Z,101918.28
2023-01-23T16:17:36.689Z,101918.28
2023-01-23T16:20:03.391Z,101920.88
2023-01-23T16:22:29.932Z,101928.75
2023-01-23T16:24:58.228Z,101926.13
2023-01-23T16:27:27.875Z,101926.13
2023-01-23T16:29:55.541Z,101927.00
2023-01-23T16:32:22.569Z,101933.94
2023-01-23T16:34:49.173Z,101933.94
2023-01-23T16:37:17.515Z,101937.44
2023-01-23T16:39:47.557Z,101927.00
2023-01-23T16:42:22.825Z,101929.59
2023-01-23T16:44:50.415Z,101923.50
2023-01-23T16:47:16.898Z,101929.59
2023-01-23T16:49:52.033Z,101935.66
2023-01-23T16:52:23.210Z,101947.88
2023-01-23T16:54:53.151Z,101953.97
2023-01-23T16:57:21.191Z,101944.38
2023-01-23T16:59:49.762Z,101947.88
2023-01-23T17:02:25.820Z,101946.13
2023-01-23T17:04:52.349Z,101941.78
2023-01-23T17:07:19.408Z,101950.50
2023-01-23T17:09:47.260Z,101943.50
2023-01-23T17:12:25.119Z,101947.00
2023-01-23T17:14:52.550Z,101951.34
2023-01-23T17:17:33.264Z,101947.00
2023-01-23T17:20:01.202Z,101951.34
2023-01-23T17:22:32.861Z,101954.81
2023-01-23T17:24:59.277Z,101950.47
2023-01-23T17:27:25.706Z,101955.69
2023-01-23T17:29:52.093Z,101953.97
2023-01-23T17:32:38.405Z,101958.31
2023-01-23T17:35:11.632Z,101959.19
2023-01-23T17:37:38.063Z,101964.38
2023-01-23T17:40:04.914Z,101960.94
2023-01-23T17:42:31.316Z,101965.25
2023-01-23T17:44:57.764Z,101973.09
2023-01-23T17:47:24.180Z,101971.38
2023-01-23T17:49:52.653Z,101964.38
2023-01-23T17:52:21.587Z,101973.09
2023-01-23T17:54:48.895Z,101969.59
2023-01-23T17:57:15.508Z,101980.06
2023-01-23T17:59:41.852Z,101978.31
2023-01-23T18:02:28.105Z,101980.91
2023-01-23T18:04:55.146Z,101983.53
2023-01-23T18:07:21.514Z,101974.81
2023-01-23T18:09:47.860Z,101978.31
2023-01-23T18:12:26.934Z,101983.53
2023-01-23T18:14:59.357Z,101983.53
2023-01-23T18:17:34.388Z,101986.16
2023-01-23T18:20:00.981Z,101987.91
2023-01-23T18:22:27.806Z,101981.81
2023-01-23T18:24:54.493Z,101993.97
2023-01-23T18:27:24.166Z,101996.59
2023-01-23T18:30:18.685Z,101995.72
2023-01-23T18:32:54.540Z,101999.22
2023-01-23T18:35:47.515Z,102013.13
2023-01-23T18:39:01.941Z,102015.75
2023-01-23T18:41:29.291Z,102012.25
2023-01-23T18:44:12.813Z,102007.94
2023-01-23T18:46:39.330Z,102004.47
2023-01-23T18:49:05.895Z,102004.47
2023-01-23T18:51:41.941Z,101999.22
2023-01-23T18:54:25.611Z,102001.81
2023-01-23T18:56:57.739Z,102001.84
2023-01-23T18:59:45.201Z,102008.78
2023-01-23T19:02:49.082Z,102008.78
2023-01-23T19:05:18.792Z,102014.00
2023-01-23T19:07:46.162Z,102014.88
2023-01-23T19:10:14.483Z,102009.66
2023-01-23T19:12:55.916Z,102014.03
2023-01-23T19:15:35.205Z,102008.78
2023-01-23T19:18:39.090Z,102009.63
2023-01-23T19:21:25.027Z,102012.25
2023-01-23T19:23:58.079Z,102011.41
2023-01-23T19:26:30.245Z,102015.75
2023-01-23T19:28:59.745Z,102020.97
2023-01-23T19:31:28.796Z,102020.97
2023-01-23T19:33:56.496Z,102014.88
2023-01-23T19:36:23.859Z,102023.56
2023-01-23T19:38:52.345Z,102023.56
2023-01-23T19:41:24.345Z,102029.66
2023-01-23T19:43:53.853Z,102033.13
2023-01-23T19:46:24.163Z,102027.91
2023-01-23T19:48:51.420Z,102038.34
2023-01-23T19:51:19.818Z,102034.00
2023-01-23T19:53:46.430Z,102036.63
2023-01-23T19:56:14.720Z,102045.34
2023-01-23T19:58:41.576Z,102042.72
2023-01-23T20:01:18.628Z,102047.94
2023-01-23T20:03:44.996Z,102041.84
2023-01-23T20:06:11.420Z,102035.72
2023-01-23T20:08:37.748Z,102039.22
2023-01-23T20:11:04.171Z,102048.81
2023-01-23T20:13:30.613Z,102043.56
2023-01-23T20:15:56.956Z,102045.28
2023-01-23T20:18:23.284Z,102049.66
2023-01-23T20:20:49.673Z,102048.78
2023-01-23T20:23:15.986Z,102046.16
2023-01-23T20:25:42.278Z,102050.50
2023-01-23T20:28:08.662Z,102047.91
2023-01-23T20:30:35.101Z,102035.72
2023-01-23T20:33:01.692Z,102043.56
2023-01-23T20:35:29.577Z,102038.34
2023-01-23T20:37:56.000Z,102035.72
2023-01-23T20:40:22.305Z,102034.84
2023-01-23T20:42:50.442Z,102030.50
2023-01-23T20:45:16.840Z,102027.91
2023-01-23T20:47:43.174Z,102024.41
2023-01-23T20:50:10.152Z,102029.66
2023-01-23T20:52:54.976Z,102024.44
2023-01-23T20:55:21.669Z,102014.84
2023-01-23T20:58:06.545Z,102024.41
2023-01-23T21:00:32.871Z,102020.03
2023-01-23T21:02:59.316Z,102019.19
2023-01-23T21:05:25.746Z,102027.03
2023-01-23T21:07:52.075Z,102022.69
2023-01-23T21:10:18.549Z,102028.75
2023-01-23T21:12:44.841Z,102033.97
2023-01-23T21:15:11.474Z,102037.44
2023-01-23T21:17:38.571Z,102038.31
2023-01-23T21:20:05.556Z,102029.59
2023-01-23T21:22:31.859Z,102033.97
2023-01-23T21:24:58.185Z,102033.09
2023-01-23T21:27:25.348Z,102040.03
2023-01-23T21:29:52.530Z,102038.31
2023-01-23T21:32:19.929Z,102034.81
2023-01-23T21:34:46.363Z,102037.44
2023-01-23T21:37:12.707Z,102032.22
2023-01-23T21:39:39.703Z,102032.22
2023-01-23T21:42:06.108Z,102032.22
2023-01-23T21:44:34.576Z,102038.31
2023-01-23T21:47:01.960Z,102032.22
2023-01-23T21:49:28.306Z,102036.59
2023-01-23T21:51:54.640Z,102031.38
2023-01-23T21:54:21.057Z,102042.66
2023-01-23T21:56:47.377Z,102037.44
2023-01-23T21:59:13.749Z,102045.28
2023-01-23T22:01:42.272Z,102048.75
2023-01-23T22:04:14.511Z,102047.03
2023-01-23T22:06:42.863Z,102044.41
2023-01-23T22:09:13.600Z,102052.25
2023-01-23T22:11:39.928Z,102051.38
2023-01-23T22:14:06.298Z,102052.25
2023-01-23T22:16:47.539Z,102051.38
2023-01-23T22:19:19.682Z,102052.22
2023-01-23T22:21:46.688Z,102055.72
2023-01-23T22:24:14.302Z,102053.09
2023-01-23T22:26:40.958Z,102055.72
2023-01-23T22:29:08.514Z,102060.94
2023-01-23T22:31:35.258Z,102055.72
2023-01-23T22:34:01.807Z,102058.31
2023-01-23T22:36:28.474Z,102055.72
2023-01-23T22:38:55.413Z,102058.31
2023-01-23T22:41:23.030Z,102055.72
2023-01-23T22:43:59.207Z,102060.06
2023-01-23T22:46:25.906Z,102060.94
2023-01-23T22:48:52.411Z,102063.53
2023-01-23T22:51:24.499Z,102061.81
2023-01-23T22:53:53.376Z,102064.44
2023-01-23T22:56:20.503Z,102074.00
2023-01-23T22:58:48.309Z,102068.75
2023-01-23T23:01:15.618Z,102074.84
2023-01-23T23:03:42.453Z,102078.34
2023-01-23T23:06:11.982Z,102081.78
2023-01-23T23:08:38.903Z,102080.94
2023-01-23T23:11:06.726Z,102080.94
2023-01-23T23:13:36.162Z,102075.72
2023-01-23T23:16:08.091Z,102073.97
2023-01-23T23:18:34.887Z,102067.88
2023-01-23T23:21:04.784Z,102077.44
2023-01-23T23:23:31.373Z,102074.84
2023-01-23T23:25:58.127Z,102071.38
2023-01-23T23:28:26.401Z,102065.28
2023-01-23T23:30:53.638Z,102081.81
2023-01-23T23:33:20.278Z,102073.09
2023-01-23T23:35:46.931Z,102076.56
2023-01-23T23:38:14.439Z,102071.34
2023-01-23T23:40:41.194Z,102071.34
2023-01-23T23:43:08.328Z,102064.38
2023-01-23T23:45:35.208Z,102071.31
2023-01-23T23:48:02.288Z,102059.16
2023-01-23T23:50:29.339Z,102060.03
2023-01-23T23:52:55.814Z,102064.34
2023-01-23T23:55:22.568Z,102065.22
2023-01-23T23:57:49.282Z,102063.47
